sensor_id;sensor_type;location;lat;lon;timestamp;P1;durP1;ratioP1;P2;durP2;ratioP2
5813;SDS011;2933;52.302;8.134;2023-01-19T00:04:07;15.97;;;8.30;;
5813;SDS011;2933;52.302;8.134;2023-01-19T00:09:10;13.40;;;7.70;;
5813;SDS011;2933;52.302;8.134;2023-01-19T00:14:12;16.90;;;8.10;;
5813;SDS011;2933;52.302;8.134;2023-01-19T00:19:13;17.87;;;8.53;;
5813;SDS011;2933;52.302;8.134;2023-01-19T00:24:16;16.67;;;8.10;;
5813;SDS011;2933;52.302;8.134;2023-01-19T00:29:18;14.00;;;8.87;;
5813;SDS011;2933;52.302;8.134;2023-01-19T00:34:20;23.10;;;8.17;;
5813;SDS011;2933;52.302;8.134;2023-01-19T00:39:23;17.07;;;8.50;;
5813;SDS011;2933;52.302;8.134;2023-01-19T00:44:24;13.20;;;8.43;;
5813;SDS011;2933;52.302;8.134;2023-01-19T00:49:26;13.33;;;6.83;;
5813;SDS011;2933;52.302;8.134;2023-01-19T00:54:29;12.00;;;8.47;;
5813;SDS011;2933;52.302;8.134;2023-01-19T00:59:30;16.53;;;9.93;;
5813;SDS011;2933;52.302;8.134;2023-01-19T01:04:32;13.60;;;8.20;;
5813;SDS011;2933;52.302;8.134;2023-01-19T01:09:35;16.27;;;8.83;;
5813;SDS011;2933;52.302;8.134;2023-01-19T01:14:37;18.20;;;8.70;;
5813;SDS011;2933;52.302;8.134;2023-01-19T01:19:39;17.67;;;9.30;;
5813;SDS011;2933;52.302;8.134;2023-01-19T01:24:42;18.83;;;9.73;;
5813;SDS011;2933;52.302;8.134;2023-01-19T01:29:43;21.17;;;10.10;;
5813;SDS011;2933;52.302;8.134;2023-01-19T01:34:45;16.73;;;9.87;;
5813;SDS011;2933;52.302;8.134;2023-01-19T01:39:48;9.47;;;6.97;;
5813;SDS011;2933;52.302;8.134;2023-01-19T01:44:50;16.07;;;9.97;;
5813;SDS011;2933;52.302;8.134;2023-01-19T01:49:55;21.53;;;9.20;;
5813;SDS011;2933;52.302;8.134;2023-01-19T01:55:03;23.53;;;11.63;;
5813;SDS011;2933;52.302;8.134;2023-01-19T02:00:07;17.90;;;10.77;;
5813;SDS011;2933;52.302;8.134;2023-01-19T02:05:12;19.00;;;9.80;;
5813;SDS011;2933;52.302;8.134;2023-01-19T02:10:18;18.83;;;9.73;;
5813;SDS011;2933;52.302;8.134;2023-01-19T02:15:37;17.10;;;10.80;;
5813;SDS011;2933;52.302;8.134;2023-01-19T02:20:39;21.57;;;10.00;;
5813;SDS011;2933;52.302;8.134;2023-01-19T02:25:47;14.93;;;9.80;;
5813;SDS011;2933;52.302;8.134;2023-01-19T02:30:49;18.97;;;9.80;;
5813;SDS011;2933;52.302;8.134;2023-01-19T02:35:51;18.70;;;10.83;;
5813;SDS011;2933;52.302;8.134;2023-01-19T02:40:56;15.80;;;9.23;;
5813;SDS011;2933;52.302;8.134;2023-01-19T02:46:00;16.97;;;10.50;;
5813;SDS011;2933;52.302;8.134;2023-01-19T02:51:07;23.33;;;12.83;;
5813;SDS011;2933;52.302;8.134;2023-01-19T02:56:22;20.83;;;11.67;;
5813;SDS011;2933;52.302;8.134;2023-01-19T03:01:36;28.03;;;12.57;;
5813;SDS011;2933;52.302;8.134;2023-01-19T03:06:48;21.47;;;12.70;;
5813;SDS011;2933;52.302;8.134;2023-01-19T03:11:58;25.97;;;11.90;;
5813;SDS011;2933;52.302;8.134;2023-01-19T03:17:08;28.03;;;11.43;;
5813;SDS011;2933;52.302;8.134;2023-01-19T03:22:12;26.63;;;12.70;;
5813;SDS011;2933;52.302;8.134;2023-01-19T03:27:19;24.47;;;11.77;;
5813;SDS011;2933;52.302;8.134;2023-01-19T03:32:27;26.00;;;12.97;;
5813;SDS011;2933;52.302;8.134;2023-01-19T03:37:34;26.33;;;12.77;;
5813;SDS011;2933;52.302;8.134;2023-01-19T03:42:41;21.33;;;12.03;;
5813;SDS011;2933;52.302;8.134;2023-01-19T03:47:45;22.67;;;13.23;;
5813;SDS011;2933;52.302;8.134;2023-01-19T03:52:49;22.80;;;12.93;;
5813;SDS011;2933;52.302;8.134;2023-01-19T03:58:02;25.10;;;12.17;;
5813;SDS011;2933;52.302;8.134;2023-01-19T04:03:04;25.87;;;13.17;;
5813;SDS011;2933;52.302;8.134;2023-01-19T04:08:07;27.00;;;12.87;;
5813;SDS011;2933;52.302;8.134;2023-01-19T04:13:10;24.47;;;13.77;;
5813;SDS011;2933;52.302;8.134;2023-01-19T04:18:11;23.70;;;12.50;;
5813;SDS011;2933;52.302;8.134;2023-01-19T04:23:13;24.90;;;12.80;;
5813;SDS011;2933;52.302;8.134;2023-01-19T04:28:16;24.60;;;12.70;;
5813;SDS011;2933;52.302;8.134;2023-01-19T04:33:17;25.67;;;12.70;;
5813;SDS011;2933;52.302;8.134;2023-01-19T04:38:19;21.00;;;11.33;;
5813;SDS011;2933;52.302;8.134;2023-01-19T04:43:22;39.30;;;12.87;;
5813;SDS011;2933;52.302;8.134;2023-01-19T04:48:24;32.43;;;13.80;;
5813;SDS011;2933;52.302;8.134;2023-01-19T04:53:25;27.10;;;13.00;;
5813;SDS011;2933;52.302;8.134;2023-01-19T04:58:28;24.47;;;12.70;;
5813;SDS011;2933;52.302;8.134;2023-01-19T05:03:30;27.97;;;12.03;;
5813;SDS011;2933;52.302;8.134;2023-01-19T05:08:31;20.07;;;11.63;;
5813;SDS011;2933;52.302;8.134;2023-01-19T05:13:34;22.30;;;10.90;;
5813;SDS011;2933;52.302;8.134;2023-01-19T05:18:36;21.00;;;11.10;;
5813;SDS011;2933;52.302;8.134;2023-01-19T05:23:37;23.50;;;12.07;;
5813;SDS011;2933;52.302;8.134;2023-01-19T05:28:41;19.30;;;10.50;;
5813;SDS011;2933;52.302;8.134;2023-01-19T05:33:42;19.47;;;10.40;;
5813;SDS011;2933;52.302;8.134;2023-01-19T05:38:44;19.80;;;10.87;;
5813;SDS011;2933;52.302;8.134;2023-01-19T05:43:47;16.37;;;9.97;;
5813;SDS011;2933;52.302;8.134;2023-01-19T05:48:49;16.80;;;9.43;;
5813;SDS011;2933;52.302;8.134;2023-01-19T05:53:50;14.53;;;9.67;;
5813;SDS011;2933;52.302;8.134;2023-01-19T05:58:53;13.97;;;9.63;;
5813;SDS011;2933;52.302;8.134;2023-01-19T06:03:55;16.13;;;9.90;;
5813;SDS011;2933;52.302;8.134;2023-01-19T06:08:57;15.17;;;9.20;;
5813;SDS011;2933;52.302;8.134;2023-01-19T06:14:01;12.53;;;8.10;;
5813;SDS011;2933;52.302;8.134;2023-01-19T06:19:02;11.13;;;7.63;;
5813;SDS011;2933;52.302;8.134;2023-01-19T06:24:04;12.37;;;7.90;;
5813;SDS011;2933;52.302;8.134;2023-01-19T06:29:08;14.60;;;7.67;;
5813;SDS011;2933;52.302;8.134;2023-01-19T06:34:10;15.93;;;8.10;;
5813;SDS011;2933;52.302;8.134;2023-01-19T06:39:11;10.20;;;7.03;;
5813;SDS011;2933;52.302;8.134;2023-01-19T06:44:15;10.27;;;7.03;;
5813;SDS011;2933;52.302;8.134;2023-01-19T06:49:16;12.13;;;8.13;;
5813;SDS011;2933;52.302;8.134;2023-01-19T06:54:17;8.47;;;6.80;;
5813;SDS011;2933;52.302;8.134;2023-01-19T06:59:20;10.33;;;7.37;;
5813;SDS011;2933;52.302;8.134;2023-01-19T07:04:22;11.00;;;7.30;;
5813;SDS011;2933;52.302;8.134;2023-01-19T07:09:24;11.23;;;7.70;;
5813;SDS011;2933;52.302;8.134;2023-01-19T07:14:27;9.13;;;6.90;;
5813;SDS011;2933;52.302;8.134;2023-01-19T07:19:32;9.70;;;7.00;;
5813;SDS011;2933;52.302;8.134;2023-01-19T07:24:34;8.93;;;6.57;;
5813;SDS011;2933;52.302;8.134;2023-01-19T07:29:38;9.50;;;6.60;;
5813;SDS011;2933;52.302;8.134;2023-01-19T07:34:39;10.03;;;6.77;;
5813;SDS011;2933;52.302;8.134;2023-01-19T07:39:41;11.83;;;6.67;;
5813;SDS011;2933;52.302;8.134;2023-01-19T07:44:44;6.23;;;5.63;;
5813;SDS011;2933;52.302;8.134;2023-01-19T07:49:45;10.23;;;6.93;;
5813;SDS011;2933;52.302;8.134;2023-01-19T07:54:47;6.87;;;6.17;;
5813;SDS011;2933;52.302;8.134;2023-01-19T07:59:51;6.90;;;5.70;;
5813;SDS011;2933;52.302;8.134;2023-01-19T08:04:52;8.37;;;6.47;;
5813;SDS011;2933;52.302;8.134;2023-01-19T08:09:54;5.77;;;4.87;;
5813;SDS011;2933;52.302;8.134;2023-01-19T08:14:57;6.87;;;6.17;;
5813;SDS011;2933;52.302;8.134;2023-01-19T08:19:58;8.77;;;5.90;;
5813;SDS011;2933;52.302;8.134;2023-01-19T08:24:59;9.23;;;6.27;;
5813;SDS011;2933;52.302;8.134;2023-01-19T08:30:02;8.23;;;6.40;;
5813;SDS011;2933;52.302;8.134;2023-01-19T08:35:05;6.10;;;5.47;;
5813;SDS011;2933;52.302;8.134;2023-01-19T08:40:08;7.43;;;6.10;;
5813;SDS011;2933;52.302;8.134;2023-01-19T08:45:11;6.83;;;4.90;;
5813;SDS011;2933;52.302;8.134;2023-01-19T08:50:13;6.60;;;5.80;;
5813;SDS011;2933;52.302;8.134;2023-01-19T08:55:15;7.63;;;5.80;;
5813;SDS011;2933;52.302;8.134;2023-01-19T09:00:18;7.63;;;5.63;;
5813;SDS011;2933;52.302;8.134;2023-01-19T09:05:20;12.53;;;5.20;;
5813;SDS011;2933;52.302;8.134;2023-01-19T09:10:22;7.93;;;5.50;;
5813;SDS011;2933;52.302;8.134;2023-01-19T09:15:25;8.80;;;6.30;;
5813;SDS011;2933;52.302;8.134;2023-01-19T09:20:26;8.40;;;5.13;;
5813;SDS011;2933;52.302;8.134;2023-01-19T09:25:30;10.20;;;6.30;;
5813;SDS011;2933;52.302;8.134;2023-01-19T09:30:33;11.13;;;6.53;;
5813;SDS011;2933;52.302;8.134;2023-01-19T09:35:36;5.77;;;4.93;;
5813;SDS011;2933;52.302;8.134;2023-01-19T09:40:39;8.33;;;5.57;;
5813;SDS011;2933;52.302;8.134;2023-01-19T09:45:44;7.43;;;5.77;;
5813;SDS011;2933;52.302;8.134;2023-01-19T09:50:51;11.53;;;5.90;;
5813;SDS011;2933;52.302;8.134;2023-01-19T09:55:55;10.80;;;5.80;;
5813;SDS011;2933;52.302;8.134;2023-01-19T10:01:03;14.27;;;7.47;;
5813;SDS011;2933;52.302;8.134;2023-01-19T10:06:12;11.77;;;7.03;;
5813;SDS011;2933;52.302;8.134;2023-01-19T10:11:18;18.63;;;6.10;;
5813;SDS011;2933;52.302;8.134;2023-01-19T10:16:28;7.87;;;5.63;;
5813;SDS011;2933;52.302;8.134;2023-01-19T10:21:39;12.10;;;6.40;;
5813;SDS011;2933;52.302;8.134;2023-01-19T10:26:44;17.33;;;6.97;;
5813;SDS011;2933;52.302;8.134;2023-01-19T10:31:54;10.20;;;5.60;;
5813;SDS011;2933;52.302;8.134;2023-01-19T10:37:12;9.97;;;4.77;;
5813;SDS011;2933;52.302;8.134;2023-01-19T10:42:18;12.53;;;4.87;;
5813;SDS011;2933;52.302;8.134;2023-01-19T10:47:22;7.57;;;4.53;;
5813;SDS011;2933;52.302;8.134;2023-01-19T10:52:32;7.97;;;3.87;;
5813;SDS011;2933;52.302;8.134;2023-01-19T10:57:36;13.93;;;4.70;;
5813;SDS011;2933;52.302;8.134;2023-01-19T11:02:48;13.60;;;4.10;;
5813;SDS011;2933;52.302;8.134;2023-01-19T11:07:50;16.10;;;4.83;;
5813;SDS011;2933;52.302;8.134;2023-01-19T11:12:54;21.27;;;4.80;;
5813;SDS011;2933;52.302;8.134;2023-01-19T11:18:01;8.77;;;4.37;;
5813;SDS011;2933;52.302;8.134;2023-01-19T11:23:06;8.40;;;4.30;;
5813;SDS011;2933;52.302;8.134;2023-01-19T11:28:20;7.00;;;4.00;;
5813;SDS011;2933;52.302;8.134;2023-01-19T11:33:33;11.70;;;4.13;;
5813;SDS011;2933;52.302;8.134;2023-01-19T11:38:39;9.30;;;4.70;;
5813;SDS011;2933;52.302;8.134;2023-01-19T11:43:43;8.20;;;4.03;;
5813;SDS011;2933;52.302;8.134;2023-01-19T11:48:47;19.93;;;4.20;;
5813;SDS011;2933;52.302;8.134;2023-01-19T11:53:55;16.70;;;3.90;;
5813;SDS011;2933;52.302;8.134;2023-01-19T11:58:57;11.50;;;3.63;;
5813;SDS011;2933;52.302;8.134;2023-01-19T12:04:00;22.37;;;3.60;;
5813;SDS011;2933;52.302;8.134;2023-01-19T12:09:20;10.23;;;3.90;;
5813;SDS011;2933;52.302;8.134;2023-01-19T12:14:26;11.33;;;3.13;;
5813;SDS011;2933;52.302;8.134;2023-01-19T12:19:37;6.13;;;2.57;;
5813;SDS011;2933;52.302;8.134;2023-01-19T12:24:44;12.10;;;3.30;;
5813;SDS011;2933;52.302;8.134;2023-01-19T12:29:50;18.93;;;2.80;;
5813;SDS011;2933;52.302;8.134;2023-01-19T12:34:56;15.43;;;2.47;;
5813;SDS011;2933;52.302;8.134;2023-01-19T12:39:58;17.67;;;2.67;;
5813;SDS011;2933;52.302;8.134;2023-01-19T12:45:04;12.07;;;2.87;;
5813;SDS011;2933;52.302;8.134;2023-01-19T12:50:13;19.20;;;2.60;;
5813;SDS011;2933;52.302;8.134;2023-01-19T12:55:19;22.80;;;3.17;;
5813;SDS011;2933;52.302;8.134;2023-01-19T13:00:28;15.67;;;2.60;;
5813;SDS011;2933;52.302;8.134;2023-01-19T13:16:45;1.80;;;1.40;;
5813;SDS011;2933;52.302;8.134;2023-01-19T13:21:56;6.87;;;1.70;;
5813;SDS011;2933;52.302;8.134;2023-01-19T13:26:58;7.37;;;2.17;;
5813;SDS011;2933;52.302;8.134;2023-01-19T13:32:03;6.53;;;1.93;;
5813;SDS011;2933;52.302;8.134;2023-01-19T13:37:10;7.90;;;2.00;;
5813;SDS011;2933;52.302;8.134;2023-01-19T13:42:17;16.00;;;2.30;;
5813;SDS011;2933;52.302;8.134;2023-01-19T13:47:25;4.63;;;1.63;;
5813;SDS011;2933;52.302;8.134;2023-01-19T13:52:35;15.07;;;2.37;;
5813;SDS011;2933;52.302;8.134;2023-01-19T13:57:38;9.07;;;2.00;;
5813;SDS011;2933;52.302;8.134;2023-01-19T14:02:50;5.30;;;2.40;;
5813;SDS011;2933;52.302;8.134;2023-01-19T14:08:03;5.07;;;2.40;;
5813;SDS011;2933;52.302;8.134;2023-01-19T14:13:12;13.07;;;2.70;;
5813;SDS011;2933;52.302;8.134;2023-01-19T14:18:23;8.53;;;2.70;;
5813;SDS011;2933;52.302;8.134;2023-01-19T14:23:44;11.20;;;2.47;;
5813;SDS011;2933;52.302;8.134;2023-01-19T14:28:49;3.70;;;2.70;;
5813;SDS011;2933;52.302;8.134;2023-01-19T14:33:51;5.60;;;3.30;;
5813;SDS011;2933;52.302;8.134;2023-01-19T14:38:57;18.60;;;4.20;;
5813;SDS011;2933;52.302;8.134;2023-01-19T14:44:00;9.37;;;3.90;;
5813;SDS011;2933;52.302;8.134;2023-01-19T14:49:03;4.97;;;2.83;;
5813;SDS011;2933;52.302;8.134;2023-01-19T14:54:11;12.90;;;4.30;;
5813;SDS011;2933;52.302;8.134;2023-01-19T14:59:19;12.13;;;4.10;;
5813;SDS011;2933;52.302;8.134;2023-01-19T15:04:20;6.97;;;3.53;;
5813;SDS011;2933;52.302;8.134;2023-01-19T15:09:23;11.37;;;4.57;;
5813;SDS011;2933;52.302;8.134;2023-01-19T15:14:25;10.00;;;4.50;;
5813;SDS011;2933;52.302;8.134;2023-01-19T15:19:27;18.50;;;5.53;;
5813;SDS011;2933;52.302;8.134;2023-01-19T15:24:30;7.17;;;5.50;;
5813;SDS011;2933;52.302;8.134;2023-01-19T15:29:31;10.83;;;5.93;;
5813;SDS011;2933;52.302;8.134;2023-01-19T15:34:33;8.30;;;5.13;;
5813;SDS011;2933;52.302;8.134;2023-01-19T15:39:36;12.87;;;6.37;;
5813;SDS011;2933;52.302;8.134;2023-01-19T15:44:38;10.70;;;6.10;;
5813;SDS011;2933;52.302;8.134;2023-01-19T15:49:40;19.20;;;6.87;;
5813;SDS011;2933;52.302;8.134;2023-01-19T15:54:43;11.67;;;7.10;;
5813;SDS011;2933;52.302;8.134;2023-01-19T15:59:44;14.00;;;7.10;;
5813;SDS011;2933;52.302;8.134;2023-01-19T16:04:47;14.20;;;7.83;;
5813;SDS011;2933;52.302;8.134;2023-01-19T16:09:50;15.67;;;8.10;;
5813;SDS011;2933;52.302;8.134;2023-01-19T16:14:51;14.33;;;7.83;;
5813;SDS011;2933;52.302;8.134;2023-01-19T16:19:52;15.77;;;7.67;;
5813;SDS011;2933;52.302;8.134;2023-01-19T16:24:55;20.30;;;8.77;;
5813;SDS011;2933;52.302;8.134;2023-01-19T16:29:57;17.60;;;8.77;;
5813;SDS011;2933;52.302;8.134;2023-01-19T16:35:03;16.87;;;9.83;;
5813;SDS011;2933;52.302;8.134;2023-01-19T16:40:07;19.03;;;9.00;;
5813;SDS011;2933;52.302;8.134;2023-01-19T16:45:10;19.57;;;10.03;;
5813;SDS011;2933;52.302;8.134;2023-01-19T16:50:11;24.53;;;10.00;;
5813;SDS011;2933;52.302;8.134;2023-01-19T16:55:14;26.13;;;10.30;;
5813;SDS011;2933;52.302;8.134;2023-01-19T17:00:16;15.20;;;9.07;;
5813;SDS011;2933;52.302;8.134;2023-01-19T17:05:18;28.20;;;11.93;;
5813;SDS011;2933;52.302;8.134;2023-01-19T17:10:21;23.43;;;10.13;;
5813;SDS011;2933;52.302;8.134;2023-01-19T17:15:22;22.07;;;11.00;;
5813;SDS011;2933;52.302;8.134;2023-01-19T17:20:24;37.50;;;12.73;;
5813;SDS011;2933;52.302;8.134;2023-01-19T17:25:27;27.27;;;11.70;;
5813;SDS011;2933;52.302;8.134;2023-01-19T17:30:28;20.43;;;11.53;;
5813;SDS011;2933;52.302;8.134;2023-01-19T17:35:32;29.03;;;12.67;;
5813;SDS011;2933;52.302;8.134;2023-01-19T17:40:35;27.23;;;12.80;;
5813;SDS011;2933;52.302;8.134;2023-01-19T17:45:37;27.93;;;12.27;;
5813;SDS011;2933;52.302;8.134;2023-01-19T17:50:38;34.63;;;14.13;;
5813;SDS011;2933;52.302;8.134;2023-01-19T17:55:41;32.43;;;12.87;;
5813;SDS011;2933;52.302;8.134;2023-01-19T18:00:42;31.77;;;13.57;;
5813;SDS011;2933;52.302;8.134;2023-01-19T18:05:51;32.13;;;14.47;;
5813;SDS011;2933;52.302;8.134;2023-01-19T18:10:54;34.53;;;14.37;;
5813;SDS011;2933;52.302;8.134;2023-01-19T18:15:57;39.70;;;15.40;;
5813;SDS011;2933;52.302;8.134;2023-01-19T18:21:00;34.10;;;15.83;;
5813;SDS011;2933;52.302;8.134;2023-01-19T18:26:04;39.17;;;15.90;;
5813;SDS011;2933;52.302;8.134;2023-01-19T18:31:07;39.53;;;18.13;;
5813;SDS011;2933;52.302;8.134;2023-01-19T18:36:10;37.77;;;17.73;;
5813;SDS011;2933;52.302;8.134;2023-01-19T18:41:13;36.07;;;15.80;;
5813;SDS011;2933;52.302;8.134;2023-01-19T18:46:16;39.17;;;16.43;;
5813;SDS011;2933;52.302;8.134;2023-01-19T18:51:18;32.60;;;16.50;;
5813;SDS011;2933;52.302;8.134;2023-01-19T18:56:21;39.13;;;16.50;;
5813;SDS011;2933;52.302;8.134;2023-01-19T19:01:23;39.83;;;15.90;;
5813;SDS011;2933;52.302;8.134;2023-01-19T19:06:26;34.90;;;17.63;;
5813;SDS011;2933;52.302;8.134;2023-01-19T19:11:29;47.00;;;17.60;;
5813;SDS011;2933;52.302;8.134;2023-01-19T19:16:30;32.17;;;15.70;;
5813;SDS011;2933;52.302;8.134;2023-01-19T19:21:32;41.90;;;17.90;;
5813;SDS011;2933;52.302;8.134;2023-01-19T19:26:35;41.07;;;16.80;;
5813;SDS011;2933;52.302;8.134;2023-01-19T19:31:37;35.60;;;17.37;;
5813;SDS011;2933;52.302;8.134;2023-01-19T19:36:38;36.80;;;17.93;;
5813;SDS011;2933;52.302;8.134;2023-01-19T19:41:42;40.13;;;16.63;;
5813;SDS011;2933;52.302;8.134;2023-01-19T19:46:43;38.77;;;18.40;;
5813;SDS011;2933;52.302;8.134;2023-01-19T19:51:45;34.47;;;17.20;;
5813;SDS011;2933;52.302;8.134;2023-01-19T19:56:48;32.67;;;15.30;;
5813;SDS011;2933;52.302;8.134;2023-01-19T20:01:52;50.13;;;16.57;;
5813;SDS011;2933;52.302;8.134;2023-01-19T20:06:54;35.33;;;16.40;;
5813;SDS011;2933;52.302;8.134;2023-01-19T20:11:59;44.93;;;18.27;;
5813;SDS011;2933;52.302;8.134;2023-01-19T20:17:00;46.27;;;17.73;;
5813;SDS011;2933;52.302;8.134;2023-01-19T20:22:04;35.33;;;16.07;;
5813;SDS011;2933;52.302;8.134;2023-01-19T20:27:06;41.07;;;18.27;;
5813;SDS011;2933;52.302;8.134;2023-01-19T20:32:08;37.13;;;16.20;;
5813;SDS011;2933;52.302;8.134;2023-01-19T20:37:10;42.93;;;16.43;;
5813;SDS011;2933;52.302;8.134;2023-01-19T20:42:13;43.00;;;17.40;;
5813;SDS011;2933;52.302;8.134;2023-01-19T20:47:15;45.03;;;15.97;;
5813;SDS011;2933;52.302;8.134;2023-01-19T20:52:17;45.37;;;17.37;;
5813;SDS011;2933;52.302;8.134;2023-01-19T20:57:21;35.67;;;15.77;;
5813;SDS011;2933;52.302;8.134;2023-01-19T21:02:23;38.53;;;17.07;;
5813;SDS011;2933;52.302;8.134;2023-01-19T21:07:25;37.13;;;16.37;;
5813;SDS011;2933;52.302;8.134;2023-01-19T21:12:28;39.20;;;15.43;;
5813;SDS011;2933;52.302;8.134;2023-01-19T21:17:29;40.53;;;18.33;;
5813;SDS011;2933;52.302;8.134;2023-01-19T21:22:31;45.10;;;18.43;;
5813;SDS011;2933;52.302;8.134;2023-01-19T21:27:34;43.00;;;16.83;;
5813;SDS011;2933;52.302;8.134;2023-01-19T21:32:35;42.30;;;18.40;;
5813;SDS011;2933;52.302;8.134;2023-01-19T21:37:37;45.83;;;17.97;;
5813;SDS011;2933;52.302;8.134;2023-01-19T21:42:40;41.10;;;17.60;;
5813;SDS011;2933;52.302;8.134;2023-01-19T21:47:41;43.53;;;16.40;;
5813;SDS011;2933;52.302;8.134;2023-01-19T21:52:43;41.37;;;18.10;;
5813;SDS011;2933;52.302;8.134;2023-01-19T21:57:46;44.77;;;16.93;;
5813;SDS011;2933;52.302;8.134;2023-01-19T22:02:47;39.80;;;15.93;;
5813;SDS011;2933;52.302;8.134;2023-01-19T22:07:49;38.63;;;16.27;;
5813;SDS011;2933;52.302;8.134;2023-01-19T22:12:52;35.67;;;15.73;;
5813;SDS011;2933;52.302;8.134;2023-01-19T22:17:54;43.27;;;17.23;;
5813;SDS011;2933;52.302;8.134;2023-01-19T22:22:55;44.63;;;16.60;;
5813;SDS011;2933;52.302;8.134;2023-01-19T22:27:58;48.07;;;16.50;;
5813;SDS011;2933;52.302;8.134;2023-01-19T22:33:00;40.27;;;14.97;;
5813;SDS011;2933;52.302;8.134;2023-01-19T22:38:01;52.17;;;17.33;;
5813;SDS011;2933;52.302;8.134;2023-01-19T22:43:04;45.60;;;17.40;;
5813;SDS011;2933;52.302;8.134;2023-01-19T22:48:06;46.47;;;16.93;;
5813;SDS011;2933;52.302;8.134;2023-01-19T22:53:07;44.80;;;16.93;;
5813;SDS011;2933;52.302;8.134;2023-01-19T22:58:10;44.80;;;16.60;;
5813;SDS011;2933;52.302;8.134;2023-01-19T23:03:12;49.70;;;16.83;;
5813;SDS011;2933;52.302;8.134;2023-01-19T23:08:13;44.63;;;15.97;;
5813;SDS011;2933;52.302;8.134;2023-01-19T23:13:16;48.27;;;15.27;;
5813;SDS011;2933;52.302;8.134;2023-01-19T23:18:18;48.20;;;17.70;;
5813;SDS011;2933;52.302;8.134;2023-01-19T23:23:19;41.97;;;16.80;;
5813;SDS011;2933;52.302;8.134;2023-01-19T23:28:22;47.97;;;16.57;;
5813;SDS011;2933;52.302;8.134;2023-01-19T23:33:24;36.77;;;14.83;;
5813;SDS011;2933;52.302;8.134;2023-01-19T23:38:25;42.07;;;16.87;;
5813;SDS011;2933;52.302;8.134;2023-01-19T23:43:28;40.10;;;15.70;;
5813;SDS011;2933;52.302;8.134;2023-01-19T23:48:30;42.47;;;16.30;;
5813;SDS011;2933;52.302;8.134;2023-01-19T23:53:33;43.80;;;16.97;;
5813;SDS011;2933;52.302;8.134;2023-01-19T23:58:36;45.80;;;17.33;;
